sensor_id;sensor_type;location;lat;lon;timestamp;P1;durP1;ratioP1;P2;durP2;ratioP2
35294;SDS011;21413;48.032;7.764;2022-08-20T00:00:49;22.27;;;19.93;;
35294;SDS011;21413;48.032;7.764;2022-08-20T00:05:45;22.33;;;19.23;;
35294;SDS011;21413;48.032;7.764;2022-08-20T00:08:11;21.77;;;19.70;;
35294;SDS011;21413;48.032;7.764;2022-08-20T00:10:38;20.67;;;18.67;;
35294;SDS011;21413;48.032;7.764;2022-08-20T00:13:05;23.80;;;19.93;;
35294;SDS011;21413;48.032;7.764;2022-08-20T00:15:32;23.57;;;21.50;;
35294;SDS011;21413;48.032;7.764;2022-08-20T00:17:59;21.90;;;19.20;;
35294;SDS011;21413;48.032;7.764;2022-08-20T00:20:26;22.50;;;20.30;;
35294;SDS011;21413;48.032;7.764;2022-08-20T00:22:53;23.50;;;21.07;;
35294;SDS011;21413;48.032;7.764;2022-08-20T00:25:19;23.43;;;19.57;;
35294;SDS011;21413;48.032;7.764;2022-08-20T00:27:45;21.73;;;19.43;;
35294;SDS011;21413;48.032;7.764;2022-08-20T00:30:11;21.33;;;19.27;;
35294;SDS011;21413;48.032;7.764;2022-08-20T00:33:21;20.23;;;18.20;;
35294;SDS011;21413;48.032;7.764;2022-08-20T00:35:28;22.70;;;18.97;;
35294;SDS011;21413;48.032;7.764;2022-08-20T00:37:55;22.50;;;20.13;;
35294;SDS011;21413;48.032;7.764;2022-08-20T00:40:22;22.57;;;20.33;;
35294;SDS011;21413;48.032;7.764;2022-08-20T00:42:50;24.13;;;21.53;;
35294;SDS011;21413;48.032;7.764;2022-08-20T00:45:18;23.97;;;21.50;;
35294;SDS011;21413;48.032;7.764;2022-08-20T00:47:44;22.60;;;20.33;;
35294;SDS011;21413;48.032;7.764;2022-08-20T00:50:11;22.13;;;19.87;;
35294;SDS011;21413;48.032;7.764;2022-08-20T00:52:40;21.03;;;18.63;;
35294;SDS011;21413;48.032;7.764;2022-08-20T00:55:07;22.50;;;19.10;;
35294;SDS011;21413;48.032;7.764;2022-08-20T00:57:34;20.33;;;18.53;;
35294;SDS011;21413;48.032;7.764;2022-08-20T01:00:03;22.03;;;18.07;;
35294;SDS011;21413;48.032;7.764;2022-08-20T01:02:30;30.90;;;17.57;;
35294;SDS011;21413;48.032;7.764;2022-08-20T01:04:57;21.20;;;19.30;;
35294;SDS011;21413;48.032;7.764;2022-08-20T01:07:24;21.67;;;19.43;;
35294;SDS011;21413;48.032;7.764;2022-08-20T01:09:57;20.97;;;18.63;;
35294;SDS011;21413;48.032;7.764;2022-08-20T01:12:24;19.20;;;17.27;;
35294;SDS011;21413;48.032;7.764;2022-08-20T01:14:51;21.50;;;19.40;;
35294;SDS011;21413;48.032;7.764;2022-08-20T01:17:20;24.90;;;18.60;;
35294;SDS011;21413;48.032;7.764;2022-08-20T01:19:53;20.03;;;18.03;;
35294;SDS011;21413;48.032;7.764;2022-08-20T01:22:22;23.83;;;17.63;;
35294;SDS011;21413;48.032;7.764;2022-08-20T01:25:11;20.50;;;18.50;;
35294;SDS011;21413;48.032;7.764;2022-08-20T01:27:38;18.47;;;16.97;;
35294;SDS011;21413;48.032;7.764;2022-08-20T01:30:05;20.60;;;18.27;;
35294;SDS011;21413;48.032;7.764;2022-08-20T01:32:32;25.53;;;19.93;;
35294;SDS011;21413;48.032;7.764;2022-08-20T01:34:58;18.97;;;17.27;;
35294;SDS011;21413;48.032;7.764;2022-08-20T01:37:24;21.83;;;19.83;;
35294;SDS011;21413;48.032;7.764;2022-08-20T01:39:50;20.63;;;18.43;;
35294;SDS011;21413;48.032;7.764;2022-08-20T01:42:20;22.27;;;19.30;;
35294;SDS011;21413;48.032;7.764;2022-08-20T01:44:50;25.90;;;20.13;;
35294;SDS011;21413;48.032;7.764;2022-08-20T01:47:24;20.73;;;18.33;;
35294;SDS011;21413;48.032;7.764;2022-08-20T01:49:51;20.80;;;18.97;;
35294;SDS011;21413;48.032;7.764;2022-08-20T01:54:53;22.13;;;18.47;;
35294;SDS011;21413;48.032;7.764;2022-08-20T01:57:20;27.27;;;19.00;;
35294;SDS011;21413;48.032;7.764;2022-08-20T01:59:50;20.03;;;17.33;;
35294;SDS011;21413;48.032;7.764;2022-08-20T02:02:17;19.83;;;18.20;;
35294;SDS011;21413;48.032;7.764;2022-08-20T02:04:43;22.00;;;19.83;;
35294;SDS011;21413;48.032;7.764;2022-08-20T02:07:18;24.60;;;18.70;;
35294;SDS011;21413;48.032;7.764;2022-08-20T02:09:45;19.70;;;17.27;;
35294;SDS011;21413;48.032;7.764;2022-08-20T02:12:11;21.70;;;19.60;;
35294;SDS011;21413;48.032;7.764;2022-08-20T02:14:39;20.20;;;18.10;;
35294;SDS011;21413;48.032;7.764;2022-08-20T02:17:06;20.23;;;17.97;;
35294;SDS011;21413;48.032;7.764;2022-08-20T02:19:35;19.33;;;17.67;;
35294;SDS011;21413;48.032;7.764;2022-08-20T02:22:03;18.60;;;16.80;;
35294;SDS011;21413;48.032;7.764;2022-08-20T02:24:33;23.87;;;18.40;;
35294;SDS011;21413;48.032;7.764;2022-08-20T02:26:59;20.60;;;18.70;;
35294;SDS011;21413;48.032;7.764;2022-08-20T02:29:25;19.17;;;17.23;;
35294;SDS011;21413;48.032;7.764;2022-08-20T02:31:51;19.37;;;17.33;;
35294;SDS011;21413;48.032;7.764;2022-08-20T02:34:18;18.80;;;17.03;;
35294;SDS011;21413;48.032;7.764;2022-08-20T02:36:44;19.60;;;16.83;;
35294;SDS011;21413;48.032;7.764;2022-08-20T02:39:13;18.87;;;16.90;;
35294;SDS011;21413;48.032;7.764;2022-08-20T02:41:39;19.53;;;16.27;;
35294;SDS011;21413;48.032;7.764;2022-08-20T02:44:05;19.57;;;17.60;;
35294;SDS011;21413;48.032;7.764;2022-08-20T02:46:32;19.73;;;17.53;;
35294;SDS011;21413;48.032;7.764;2022-08-20T02:48:58;20.53;;;18.33;;
35294;SDS011;21413;48.032;7.764;2022-08-20T02:51:24;18.67;;;16.80;;
35294;SDS011;21413;48.032;7.764;2022-08-20T02:53:51;19.60;;;17.80;;
35294;SDS011;21413;48.032;7.764;2022-08-20T02:56:17;18.60;;;16.60;;
35294;SDS011;21413;48.032;7.764;2022-08-20T02:58:44;20.20;;;18.40;;
35294;SDS011;21413;48.032;7.764;2022-08-20T03:01:11;19.50;;;17.53;;
35294;SDS011;21413;48.032;7.764;2022-08-20T03:03:38;24.53;;;18.70;;
35294;SDS011;21413;48.032;7.764;2022-08-20T03:06:05;19.27;;;16.93;;
35294;SDS011;21413;48.032;7.764;2022-08-20T03:08:31;17.90;;;16.27;;
35294;SDS011;21413;48.032;7.764;2022-08-20T03:10:58;19.23;;;17.43;;
35294;SDS011;21413;48.032;7.764;2022-08-20T03:13:24;18.30;;;16.57;;
35294;SDS011;21413;48.032;7.764;2022-08-20T03:15:56;17.93;;;16.13;;
35294;SDS011;21413;48.032;7.764;2022-08-20T03:18:24;19.03;;;17.27;;
35294;SDS011;21413;48.032;7.764;2022-08-20T03:20:50;17.70;;;15.93;;
35294;SDS011;21413;48.032;7.764;2022-08-20T03:23:16;18.30;;;16.70;;
35294;SDS011;21413;48.032;7.764;2022-08-20T03:25:43;22.30;;;16.80;;
35294;SDS011;21413;48.032;7.764;2022-08-20T03:28:09;21.93;;;16.53;;
35294;SDS011;21413;48.032;7.764;2022-08-20T03:30:36;20.53;;;17.00;;
35294;SDS011;21413;48.032;7.764;2022-08-20T03:33:02;18.90;;;17.03;;
35294;SDS011;21413;48.032;7.764;2022-08-20T03:35:29;16.80;;;15.40;;
35294;SDS011;21413;48.032;7.764;2022-08-20T03:37:55;18.90;;;16.93;;
35294;SDS011;21413;48.032;7.764;2022-08-20T03:40:23;16.43;;;14.93;;
35294;SDS011;21413;48.032;7.764;2022-08-20T03:42:49;16.30;;;15.10;;
35294;SDS011;21413;48.032;7.764;2022-08-20T03:45:16;17.10;;;15.10;;
35294;SDS011;21413;48.032;7.764;2022-08-20T03:47:43;19.50;;;16.47;;
35294;SDS011;21413;48.032;7.764;2022-08-20T03:50:11;17.77;;;16.30;;
35294;SDS011;21413;48.032;7.764;2022-08-20T03:52:37;19.70;;;15.27;;
35294;SDS011;21413;48.032;7.764;2022-08-20T03:55:04;19.17;;;17.20;;
35294;SDS011;21413;48.032;7.764;2022-08-20T03:57:31;20.10;;;16.70;;
35294;SDS011;21413;48.032;7.764;2022-08-20T03:59:57;17.53;;;16.03;;
35294;SDS011;21413;48.032;7.764;2022-08-20T04:02:23;18.83;;;17.10;;
35294;SDS011;21413;48.032;7.764;2022-08-20T04:04:49;18.93;;;17.10;;
35294;SDS011;21413;48.032;7.764;2022-08-20T04:07:17;18.50;;;16.70;;
35294;SDS011;21413;48.032;7.764;2022-08-20T04:09:49;19.87;;;17.83;;
35294;SDS011;21413;48.032;7.764;2022-08-20T04:12:15;17.43;;;15.90;;
35294;SDS011;21413;48.032;7.764;2022-08-20T04:14:41;19.33;;;17.63;;
35294;SDS011;21413;48.032;7.764;2022-08-20T04:17:08;19.17;;;17.10;;
35294;SDS011;21413;48.032;7.764;2022-08-20T04:19:35;19.23;;;17.43;;
35294;SDS011;21413;48.032;7.764;2022-08-20T04:22:02;19.47;;;17.87;;
35294;SDS011;21413;48.032;7.764;2022-08-20T04:24:28;18.77;;;16.90;;
35294;SDS011;21413;48.032;7.764;2022-08-20T04:26:54;19.10;;;17.17;;
35294;SDS011;21413;48.032;7.764;2022-08-20T04:29:23;18.70;;;16.77;;
35294;SDS011;21413;48.032;7.764;2022-08-20T04:31:50;18.53;;;16.93;;
35294;SDS011;21413;48.032;7.764;2022-08-20T04:34:16;19.47;;;17.57;;
35294;SDS011;21413;48.032;7.764;2022-08-20T04:36:44;26.83;;;17.47;;
35294;SDS011;21413;48.032;7.764;2022-08-20T04:39:11;19.60;;;17.60;;
35294;SDS011;21413;48.032;7.764;2022-08-20T04:41:37;18.60;;;16.53;;
35294;SDS011;21413;48.032;7.764;2022-08-20T04:44:03;21.20;;;16.37;;
35294;SDS011;21413;48.032;7.764;2022-08-20T04:46:29;21.20;;;17.70;;
35294;SDS011;21413;48.032;7.764;2022-08-20T04:48:56;18.10;;;16.50;;
35294;SDS011;21413;48.032;7.764;2022-08-20T04:51:24;21.33;;;17.13;;
35294;SDS011;21413;48.032;7.764;2022-08-20T04:53:51;18.10;;;16.20;;
35294;SDS011;21413;48.032;7.764;2022-08-20T04:56:18;17.67;;;15.80;;
35294;SDS011;21413;48.032;7.764;2022-08-20T04:58:47;19.07;;;16.40;;
35294;SDS011;21413;48.032;7.764;2022-08-20T05:01:14;18.50;;;16.80;;
35294;SDS011;21413;48.032;7.764;2022-08-20T05:03:41;17.10;;;15.60;;
35294;SDS011;21413;48.032;7.764;2022-08-20T05:06:08;17.63;;;15.37;;
35294;SDS011;21413;48.032;7.764;2022-08-20T05:08:35;17.37;;;15.87;;
35294;SDS011;21413;48.032;7.764;2022-08-20T05:11:02;19.30;;;17.43;;
35294;SDS011;21413;48.032;7.764;2022-08-20T05:13:28;18.67;;;17.00;;
35294;SDS011;21413;48.032;7.764;2022-08-20T05:15:54;20.37;;;17.40;;
35294;SDS011;21413;48.032;7.764;2022-08-20T05:18:22;17.60;;;16.00;;
35294;SDS011;21413;48.032;7.764;2022-08-20T05:20:50;17.47;;;15.93;;
35294;SDS011;21413;48.032;7.764;2022-08-20T05:23:16;15.53;;;14.37;;
35294;SDS011;21413;48.032;7.764;2022-08-20T05:25:44;14.87;;;13.67;;
35294;SDS011;21413;48.032;7.764;2022-08-20T05:28:22;14.20;;;12.90;;
35294;SDS011;21413;48.032;7.764;2022-08-20T05:30:48;13.20;;;12.13;;
35294;SDS011;21413;48.032;7.764;2022-08-20T05:33:16;12.40;;;11.40;;
35294;SDS011;21413;48.032;7.764;2022-08-20T05:35:43;13.90;;;12.60;;
35294;SDS011;21413;48.032;7.764;2022-08-20T05:38:11;19.53;;;12.57;;
35294;SDS011;21413;48.032;7.764;2022-08-20T05:40:38;15.53;;;11.97;;
35294;SDS011;21413;48.032;7.764;2022-08-20T05:43:04;17.73;;;12.60;;
35294;SDS011;21413;48.032;7.764;2022-08-20T05:45:31;11.17;;;10.20;;
35294;SDS011;21413;48.032;7.764;2022-08-20T05:47:57;12.50;;;11.10;;
35294;SDS011;21413;48.032;7.764;2022-08-20T05:50:23;12.90;;;11.50;;
35294;SDS011;21413;48.032;7.764;2022-08-20T05:52:49;12.37;;;11.07;;
35294;SDS011;21413;48.032;7.764;2022-08-20T05:55:16;15.60;;;11.30;;
35294;SDS011;21413;48.032;7.764;2022-08-20T05:57:42;14.67;;;10.27;;
35294;SDS011;21413;48.032;7.764;2022-08-20T06:00:11;10.00;;;9.20;;
35294;SDS011;21413;48.032;7.764;2022-08-20T06:02:37;9.63;;;8.83;;
35294;SDS011;21413;48.032;7.764;2022-08-20T06:05:22;9.90;;;9.07;;
35294;SDS011;21413;48.032;7.764;2022-08-20T06:07:48;9.90;;;9.20;;
35294;SDS011;21413;48.032;7.764;2022-08-20T06:10:14;9.30;;;8.70;;
35294;SDS011;21413;48.032;7.764;2022-08-20T06:12:40;8.80;;;8.00;;
35294;SDS011;21413;48.032;7.764;2022-08-20T06:15:08;8.47;;;7.40;;
35294;SDS011;21413;48.032;7.764;2022-08-20T06:17:34;8.67;;;7.90;;
35294;SDS011;21413;48.032;7.764;2022-08-20T06:20:01;8.37;;;7.60;;
35294;SDS011;21413;48.032;7.764;2022-08-20T06:22:30;11.50;;;7.13;;
35294;SDS011;21413;48.032;7.764;2022-08-20T06:24:56;7.37;;;6.87;;
35294;SDS011;21413;48.032;7.764;2022-08-20T06:27:23;7.90;;;7.30;;
35294;SDS011;21413;48.032;7.764;2022-08-20T06:29:50;6.83;;;6.33;;
35294;SDS011;21413;48.032;7.764;2022-08-20T06:32:16;7.17;;;6.50;;
35294;SDS011;21413;48.032;7.764;2022-08-20T06:34:43;7.67;;;6.97;;
35294;SDS011;21413;48.032;7.764;2022-08-20T06:37:16;6.60;;;6.07;;
35294;SDS011;21413;48.032;7.764;2022-08-20T06:39:43;9.23;;;7.13;;
35294;SDS011;21413;48.032;7.764;2022-08-20T06:42:09;10.03;;;6.70;;
35294;SDS011;21413;48.032;7.764;2022-08-20T06:44:35;7.38;;;5.63;;
35294;SDS011;21413;48.032;7.764;2022-08-20T06:47:03;7.50;;;6.70;;
35294;SDS011;21413;48.032;7.764;2022-08-20T06:49:29;5.23;;;4.93;;
35294;SDS011;21413;48.032;7.764;2022-08-20T06:51:55;5.80;;;5.40;;
35294;SDS011;21413;48.032;7.764;2022-08-20T06:54:21;5.73;;;4.77;;
35294;SDS011;21413;48.032;7.764;2022-08-20T06:56:48;8.00;;;5.37;;
35294;SDS011;21413;48.032;7.764;2022-08-20T06:59:18;5.97;;;5.13;;
35294;SDS011;21413;48.032;7.764;2022-08-20T07:01:44;5.33;;;3.93;;
35294;SDS011;21413;48.032;7.764;2022-08-20T07:04:10;5.53;;;5.23;;
35294;SDS011;21413;48.032;7.764;2022-08-20T07:06:36;16.50;;;14.90;;
35294;SDS011;21413;48.032;7.764;2022-08-20T07:09:02;6.13;;;5.60;;
35294;SDS011;21413;48.032;7.764;2022-08-20T07:11:28;6.67;;;6.23;;
35294;SDS011;21413;48.032;7.764;2022-08-20T07:13:55;5.53;;;5.13;;
35294;SDS011;21413;48.032;7.764;2022-08-20T07:16:22;5.40;;;4.30;;
35294;SDS011;21413;48.032;7.764;2022-08-20T07:18:48;5.00;;;4.57;;
35294;SDS011;21413;48.032;7.764;2022-08-20T07:21:14;5.13;;;4.83;;
35294;SDS011;21413;48.032;7.764;2022-08-20T07:23:41;4.37;;;4.17;;
35294;SDS011;21413;48.032;7.764;2022-08-20T07:26:07;3.63;;;3.53;;
35294;SDS011;21413;48.032;7.764;2022-08-20T07:28:33;4.43;;;4.23;;
35294;SDS011;21413;48.032;7.764;2022-08-20T07:30:59;4.03;;;3.87;;
35294;SDS011;21413;48.032;7.764;2022-08-20T07:33:43;7.40;;;3.97;;
35294;SDS011;21413;48.032;7.764;2022-08-20T07:36:10;2.33;;;2.33;;
35294;SDS011;21413;48.032;7.764;2022-08-20T07:38:36;3.07;;;3.07;;
35294;SDS011;21413;48.032;7.764;2022-08-20T07:41:04;3.20;;;3.10;;
35294;SDS011;21413;48.032;7.764;2022-08-20T07:43:31;3.50;;;3.50;;
35294;SDS011;21413;48.032;7.764;2022-08-20T07:45:58;1.77;;;1.77;;
35294;SDS011;21413;48.032;7.764;2022-08-20T07:48:33;1.93;;;1.93;;
35294;SDS011;21413;48.032;7.764;2022-08-20T07:51:01;1.60;;;1.37;;
35294;SDS011;21413;48.032;7.764;2022-08-20T07:53:28;2.20;;;1.47;;
35294;SDS011;21413;48.032;7.764;2022-08-20T07:55:54;4.40;;;1.60;;
35294;SDS011;21413;48.032;7.764;2022-08-20T07:58:21;1.40;;;1.40;;
35294;SDS011;21413;48.032;7.764;2022-08-20T08:00:48;3.50;;;3.40;;
35294;SDS011;21413;48.032;7.764;2022-08-20T08:03:15;2.27;;;2.17;;
35294;SDS011;21413;48.032;7.764;2022-08-20T08:05:43;1.40;;;1.30;;
35294;SDS011;21413;48.032;7.764;2022-08-20T08:08:11;1.60;;;1.60;;
35294;SDS011;21413;48.032;7.764;2022-08-20T08:10:37;1.30;;;1.30;;
35294;SDS011;21413;48.032;7.764;2022-08-20T08:13:05;1.00;;;1.00;;
35294;SDS011;21413;48.032;7.764;2022-08-20T08:15:33;1.37;;;1.37;;
35294;SDS011;21413;48.032;7.764;2022-08-20T08:18:03;1.10;;;1.10;;
35294;SDS011;21413;48.032;7.764;2022-08-20T08:20:31;1.63;;;1.53;;
35294;SDS011;21413;48.032;7.764;2022-08-20T08:22:58;1.97;;;1.63;;
35294;SDS011;21413;48.032;7.764;2022-08-20T08:25:24;1.67;;;1.50;;
35294;SDS011;21413;48.032;7.764;2022-08-20T08:27:50;2.00;;;1.70;;
35294;SDS011;21413;48.032;7.764;2022-08-20T08:30:16;1.47;;;1.47;;
35294;SDS011;21413;48.032;7.764;2022-08-20T08:32:42;0.90;;;0.90;;
35294;SDS011;21413;48.032;7.764;2022-08-20T08:35:27;1.33;;;1.30;;
35294;SDS011;21413;48.032;7.764;2022-08-20T08:37:56;1.10;;;1.10;;
35294;SDS011;21413;48.032;7.764;2022-08-20T08:40:26;1.30;;;1.30;;
35294;SDS011;21413;48.032;7.764;2022-08-20T08:42:53;1.67;;;1.10;;
35294;SDS011;21413;48.032;7.764;2022-08-20T08:45:22;1.30;;;1.30;;
35294;SDS011;21413;48.032;7.764;2022-08-20T08:47:49;1.70;;;1.60;;
35294;SDS011;21413;48.032;7.764;2022-08-20T08:50:20;1.50;;;1.50;;
35294;SDS011;21413;48.032;7.764;2022-08-20T08:52:47;1.23;;;1.23;;
35294;SDS011;21413;48.032;7.764;2022-08-20T08:55:15;1.47;;;1.47;;
35294;SDS011;21413;48.032;7.764;2022-08-20T08:57:45;2.40;;;1.20;;
35294;SDS011;21413;48.032;7.764;2022-08-20T09:00:13;1.60;;;1.50;;
35294;SDS011;21413;48.032;7.764;2022-08-20T09:02:40;1.90;;;1.63;;
35294;SDS011;21413;48.032;7.764;2022-08-20T09:05:17;2.00;;;1.90;;
35294;SDS011;21413;48.032;7.764;2022-08-20T09:07:47;1.87;;;1.87;;
35294;SDS011;21413;48.032;7.764;2022-08-20T09:10:14;1.70;;;1.60;;
35294;SDS011;21413;48.032;7.764;2022-08-20T09:12:41;3.70;;;1.80;;
35294;SDS011;21413;48.032;7.764;2022-08-20T09:15:08;1.87;;;1.77;;
35294;SDS011;21413;48.032;7.764;2022-08-20T09:17:35;2.00;;;1.90;;
35294;SDS011;21413;48.032;7.764;2022-08-20T09:20:01;1.80;;;1.70;;
35294;SDS011;21413;48.032;7.764;2022-08-20T09:22:27;1.63;;;1.63;;
35294;SDS011;21413;48.032;7.764;2022-08-20T09:24:53;1.90;;;1.80;;
35294;SDS011;21413;48.032;7.764;2022-08-20T09:27:20;1.90;;;1.90;;
35294;SDS011;21413;48.032;7.764;2022-08-20T09:29:46;1.70;;;1.70;;
35294;SDS011;21413;48.032;7.764;2022-08-20T09:32:16;1.50;;;1.50;;
35294;SDS011;21413;48.032;7.764;2022-08-20T09:34:44;2.40;;;2.20;;
35294;SDS011;21413;48.032;7.764;2022-08-20T09:37:10;1.73;;;1.73;;
35294;SDS011;21413;48.032;7.764;2022-08-20T09:39:36;1.57;;;1.57;;
35294;SDS011;21413;48.032;7.764;2022-08-20T09:42:06;4.67;;;1.97;;
35294;SDS011;21413;48.032;7.764;2022-08-20T09:44:32;1.73;;;1.60;;
35294;SDS011;21413;48.032;7.764;2022-08-20T09:46:58;1.50;;;1.50;;
35294;SDS011;21413;48.032;7.764;2022-08-20T09:49:24;1.90;;;1.90;;
35294;SDS011;21413;48.032;7.764;2022-08-20T09:51:50;1.30;;;1.30;;
35294;SDS011;21413;48.032;7.764;2022-08-20T09:54:16;1.90;;;1.90;;
35294;SDS011;21413;48.032;7.764;2022-08-20T09:56:42;2.30;;;1.60;;
35294;SDS011;21413;48.032;7.764;2022-08-20T09:59:08;2.40;;;2.30;;
35294;SDS011;21413;48.032;7.764;2022-08-20T10:01:34;3.57;;;1.77;;
35294;SDS011;21413;48.032;7.764;2022-08-20T10:04:00;2.10;;;1.73;;
35294;SDS011;21413;48.032;7.764;2022-08-20T10:06:26;1.53;;;1.50;;
35294;SDS011;21413;48.032;7.764;2022-08-20T10:08:52;6.10;;;1.70;;
35294;SDS011;21413;48.032;7.764;2022-08-20T10:11:18;3.87;;;1.63;;
35294;SDS011;21413;48.032;7.764;2022-08-20T10:13:44;1.70;;;1.60;;
35294;SDS011;21413;48.032;7.764;2022-08-20T10:16:10;2.50;;;1.60;;
35294;SDS011;21413;48.032;7.764;2022-08-20T10:18:36;1.50;;;1.40;;
35294;SDS011;21413;48.032;7.764;2022-08-20T10:21:02;1.20;;;1.20;;
35294;SDS011;21413;48.032;7.764;2022-08-20T10:23:28;1.40;;;1.40;;
35294;SDS011;21413;48.032;7.764;2022-08-20T10:25:54;1.40;;;1.40;;
35294;SDS011;21413;48.032;7.764;2022-08-20T10:28:20;3.20;;;1.37;;
35294;SDS011;21413;48.032;7.764;2022-08-20T10:30:46;1.37;;;1.20;;
35294;SDS011;21413;48.032;7.764;2022-08-20T10:33:12;2.10;;;1.00;;
35294;SDS011;21413;48.032;7.764;2022-08-20T10:35:38;0.93;;;0.93;;
35294;SDS011;21413;48.032;7.764;2022-08-20T10:38:04;1.10;;;1.00;;
35294;SDS011;21413;48.032;7.764;2022-08-20T10:40:30;1.47;;;1.20;;
35294;SDS011;21413;48.032;7.764;2022-08-20T10:42:56;0.80;;;0.80;;
35294;SDS011;21413;48.032;7.764;2022-08-20T10:45:22;0.87;;;0.87;;
35294;SDS011;21413;48.032;7.764;2022-08-20T10:47:49;3.23;;;1.43;;
35294;SDS011;21413;48.032;7.764;2022-08-20T10:50:15;1.30;;;1.30;;
35294;SDS011;21413;48.032;7.764;2022-08-20T10:52:43;1.10;;;1.10;;
35294;SDS011;21413;48.032;7.764;2022-08-20T10:55:10;1.20;;;1.10;;
35294;SDS011;21413;48.032;7.764;2022-08-20T10:57:37;0.80;;;0.80;;
35294;SDS011;21413;48.032;7.764;2022-08-20T11:00:03;0.83;;;0.83;;
35294;SDS011;21413;48.032;7.764;2022-08-20T11:02:31;0.70;;;0.70;;
35294;SDS011;21413;48.032;7.764;2022-08-20T11:04:57;0.80;;;0.80;;
35294;SDS011;21413;48.032;7.764;2022-08-20T11:07:30;1.60;;;0.73;;
35294;SDS011;21413;48.032;7.764;2022-08-20T11:09:56;0.80;;;0.80;;
35294;SDS011;21413;48.032;7.764;2022-08-20T11:12:23;0.90;;;0.83;;
35294;SDS011;21413;48.032;7.764;2022-08-20T11:14:50;1.10;;;1.10;;
35294;SDS011;21413;48.032;7.764;2022-08-20T11:17:24;0.80;;;0.80;;
35294;SDS011;21413;48.032;7.764;2022-08-20T11:19:50;7.43;;;1.00;;
35294;SDS011;21413;48.032;7.764;2022-08-20T11:22:16;0.90;;;0.90;;
35294;SDS011;21413;48.032;7.764;2022-08-20T11:24:43;2.37;;;0.90;;
35294;SDS011;21413;48.032;7.764;2022-08-20T11:27:09;1.13;;;1.07;;
35294;SDS011;21413;48.032;7.764;2022-08-20T11:29:35;1.10;;;1.10;;
35294;SDS011;21413;48.032;7.764;2022-08-20T11:32:02;1.30;;;1.30;;
35294;SDS011;21413;48.032;7.764;2022-08-20T11:34:29;1.13;;;1.03;;
35294;SDS011;21413;48.032;7.764;2022-08-20T11:36:55;1.03;;;1.03;;
35294;SDS011;21413;48.032;7.764;2022-08-20T11:39:22;1.07;;;1.07;;
35294;SDS011;21413;48.032;7.764;2022-08-20T11:41:48;1.23;;;1.13;;
35294;SDS011;21413;48.032;7.764;2022-08-20T11:44:14;0.80;;;0.80;;
35294;SDS011;21413;48.032;7.764;2022-08-20T11:46:40;0.80;;;0.80;;
35294;SDS011;21413;48.032;7.764;2022-08-20T11:49:06;0.90;;;0.90;;
35294;SDS011;21413;48.032;7.764;2022-08-20T11:51:32;0.97;;;0.97;;
35294;SDS011;21413;48.032;7.764;2022-08-20T11:53:59;1.10;;;1.00;;
35294;SDS011;21413;48.032;7.764;2022-08-20T11:56:25;0.70;;;0.70;;
35294;SDS011;21413;48.032;7.764;2022-08-20T11:58:51;0.80;;;0.80;;
35294;SDS011;21413;48.032;7.764;2022-08-20T12:01:17;0.90;;;0.80;;
35294;SDS011;21413;48.032;7.764;2022-08-20T12:03:43;0.90;;;0.80;;
35294;SDS011;21413;48.032;7.764;2022-08-20T12:06:09;0.93;;;0.50;;
35294;SDS011;21413;48.032;7.764;2022-08-20T12:08:35;0.83;;;0.83;;
35294;SDS011;21413;48.032;7.764;2022-08-20T12:11:01;0.80;;;0.80;;
35294;SDS011;21413;48.032;7.764;2022-08-20T12:13:28;0.80;;;0.80;;
35294;SDS011;21413;48.032;7.764;2022-08-20T12:15:54;0.70;;;0.70;;
35294;SDS011;21413;48.032;7.764;2022-08-20T12:18:21;5.30;;;0.90;;
35294;SDS011;21413;48.032;7.764;2022-08-20T12:20:47;0.70;;;0.70;;
35294;SDS011;21413;48.032;7.764;2022-08-20T12:23:13;0.77;;;0.77;;
35294;SDS011;21413;48.032;7.764;2022-08-20T12:25:39;0.93;;;0.70;;
35294;SDS011;21413;48.032;7.764;2022-08-20T12:28:05;0.70;;;0.70;;
35294;SDS011;21413;48.032;7.764;2022-08-20T12:30:31;2.10;;;0.80;;
35294;SDS011;21413;48.032;7.764;2022-08-20T12:32:57;0.60;;;0.60;;
35294;SDS011;21413;48.032;7.764;2022-08-20T12:35:24;0.70;;;0.70;;
35294;SDS011;21413;48.032;7.764;2022-08-20T12:37:50;1.37;;;0.53;;
35294;SDS011;21413;48.032;7.764;2022-08-20T12:40:18;1.63;;;0.80;;
35294;SDS011;21413;48.032;7.764;2022-08-20T12:42:44;0.70;;;0.70;;
35294;SDS011;21413;48.032;7.764;2022-08-20T12:45:10;1.00;;;1.00;;
35294;SDS011;21413;48.032;7.764;2022-08-20T12:47:38;0.73;;;0.73;;
35294;SDS011;21413;48.032;7.764;2022-08-20T12:50:09;0.97;;;0.97;;
35294;SDS011;21413;48.032;7.764;2022-08-20T12:52:35;0.90;;;0.90;;
35294;SDS011;21413;48.032;7.764;2022-08-20T12:55:02;1.67;;;0.90;;
35294;SDS011;21413;48.032;7.764;2022-08-20T12:57:37;1.00;;;1.00;;
35294;SDS011;21413;48.032;7.764;2022-08-20T13:00:04;0.90;;;0.90;;
35294;SDS011;21413;48.032;7.764;2022-08-20T13:02:31;0.77;;;0.77;;
35294;SDS011;21413;48.032;7.764;2022-08-20T13:04:57;1.23;;;1.10;;
35294;SDS011;21413;48.032;7.764;2022-08-20T13:07:23;0.87;;;0.87;;
35294;SDS011;21413;48.032;7.764;2022-08-20T13:09:49;3.13;;;0.90;;
35294;SDS011;21413;48.032;7.764;2022-08-20T13:12:15;1.00;;;1.00;;
35294;SDS011;21413;48.032;7.764;2022-08-20T13:14:41;0.80;;;0.80;;
35294;SDS011;21413;48.032;7.764;2022-08-20T13:17:08;3.27;;;1.10;;
35294;SDS011;21413;48.032;7.764;2022-08-20T13:19:34;3.77;;;1.17;;
35294;SDS011;21413;48.032;7.764;2022-08-20T13:22:01;1.20;;;1.20;;
35294;SDS011;21413;48.032;7.764;2022-08-20T13:24:27;0.77;;;0.77;;
35294;SDS011;21413;48.032;7.764;2022-08-20T13:26:53;5.40;;;1.00;;
35294;SDS011;21413;48.032;7.764;2022-08-20T13:29:19;0.90;;;0.90;;
35294;SDS011;21413;48.032;7.764;2022-08-20T13:31:45;0.70;;;0.70;;
35294;SDS011;21413;48.032;7.764;2022-08-20T13:34:11;0.80;;;0.80;;
35294;SDS011;21413;48.032;7.764;2022-08-20T13:36:37;0.80;;;0.80;;
35294;SDS011;21413;48.032;7.764;2022-08-20T13:39:05;0.70;;;0.70;;
35294;SDS011;21413;48.032;7.764;2022-08-20T13:41:31;0.70;;;0.70;;
35294;SDS011;21413;48.032;7.764;2022-08-20T13:43:57;0.60;;;0.60;;
35294;SDS011;21413;48.032;7.764;2022-08-20T13:46:23;0.60;;;0.60;;
35294;SDS011;21413;48.032;7.764;2022-08-20T13:48:49;1.47;;;0.90;;
35294;SDS011;21413;48.032;7.764;2022-08-20T13:51:15;0.70;;;0.70;;
35294;SDS011;21413;48.032;7.764;2022-08-20T13:53:41;1.07;;;1.00;;
35294;SDS011;21413;48.032;7.764;2022-08-20T13:56:07;0.90;;;0.90;;
35294;SDS011;21413;48.032;7.764;2022-08-20T13:58:33;5.57;;;0.90;;
35294;SDS011;21413;48.032;7.764;2022-08-20T14:00:59;1.40;;;1.30;;
35294;SDS011;21413;48.032;7.764;2022-08-20T14:03:25;4.93;;;1.00;;
35294;SDS011;21413;48.032;7.764;2022-08-20T14:05:51;1.30;;;1.20;;
35294;SDS011;21413;48.032;7.764;2022-08-20T14:08:19;1.57;;;1.47;;
35294;SDS011;21413;48.032;7.764;2022-08-20T14:10:45;1.30;;;0.90;;
35294;SDS011;21413;48.032;7.764;2022-08-20T14:13:14;1.13;;;1.13;;
35294;SDS011;21413;48.032;7.764;2022-08-20T14:15:41;0.80;;;0.80;;
35294;SDS011;21413;48.032;7.764;2022-08-20T14:18:07;1.00;;;0.90;;
35294;SDS011;21413;48.032;7.764;2022-08-20T14:20:33;2.00;;;0.87;;
35294;SDS011;21413;48.032;7.764;2022-08-20T14:22:59;0.70;;;0.70;;
35294;SDS011;21413;48.032;7.764;2022-08-20T14:25:26;0.70;;;0.70;;
35294;SDS011;21413;48.032;7.764;2022-08-20T14:27:52;1.03;;;1.00;;
35294;SDS011;21413;48.032;7.764;2022-08-20T14:30:20;2.20;;;1.00;;
35294;SDS011;21413;48.032;7.764;2022-08-20T14:32:46;0.93;;;0.93;;
35294;SDS011;21413;48.032;7.764;2022-08-20T14:35:12;0.77;;;0.77;;
35294;SDS011;21413;48.032;7.764;2022-08-20T14:37:40;0.80;;;0.80;;
35294;SDS011;21413;48.032;7.764;2022-08-20T14:40:07;1.63;;;0.90;;